createdAt,value
2019-03-27T00:01:55.000Z,26.1
2019-03-27T00:02:55.000Z,26.1
2019-03-27T00:04:55.000Z,26.1
2019-03-27T00:06:55.000Z,26.1
2019-03-27T00:08:55.000Z,26
2019-03-27T00:09:55.000Z,26
2019-03-27T00:11:55.000Z,26.1
2019-03-27T00:13:55.000Z,26.1
2019-03-27T00:15:55.000Z,26.1
2019-03-27T00:17:55.000Z,26.1
2019-03-27T00:19:55.000Z,26
2019-03-27T00:20:55.000Z,26
2019-03-27T00:22:55.000Z,26.1
2019-03-27T00:23:55.000Z,26.1
2019-03-27T00:25:55.000Z,26.1
2019-03-27T00:27:55.000Z,26.1
2019-03-27T00:28:55.000Z,26.1
2019-03-27T00:30:40.000Z,26.2
2019-03-27T00:31:55.000Z,26.2
2019-03-27T00:32:55.000Z,26.2
2019-03-27T00:34:40.000Z,26.3
2019-03-27T00:35:55.000Z,26.2
2019-03-27T00:36:55.000Z,26.3
2019-03-27T00:38:55.000Z,26.3
2019-03-27T00:40:55.000Z,26.3
2019-03-27T00:41:55.000Z,26.3
2019-03-27T00:42:55.000Z,26.3
2019-03-27T00:43:55.000Z,26.3
2019-03-27T00:45:54.000Z,26.3
2019-03-27T00:46:54.000Z,26.4
2019-03-27T00:48:39.000Z,26.4
2019-03-27T00:50:54.000Z,26.3
2019-03-27T00:51:54.000Z,26.2
2019-03-27T00:53:54.000Z,26.2
2019-03-27T00:54:54.000Z,26.2
2019-03-27T00:56:39.000Z,26.2
2019-03-27T00:57:54.000Z,26.2
2019-03-27T00:58:54.000Z,26.2
2019-03-27T01:00:54.000Z,26.3
2019-03-27T01:02:54.000Z,26.3
2019-03-27T01:03:54.000Z,26.3
2019-03-27T01:04:54.000Z,26.3
2019-03-27T01:05:54.000Z,26.3
2019-03-27T01:06:54.000Z,26.4
2019-03-27T01:08:54.000Z,26.4
2019-03-27T01:10:39.000Z,26.3
2019-03-27T01:11:54.000Z,26.3
2019-03-27T01:12:54.000Z,26.3
2019-03-27T01:14:54.000Z,26.3
2019-03-27T01:16:54.000Z,26.2
2019-03-27T01:18:54.000Z,26.2
2019-03-27T01:19:54.000Z,26.2
2019-03-27T01:20:54.000Z,26.2
2019-03-27T01:22:54.000Z,26.3
2019-03-27T01:23:54.000Z,26.3
2019-03-27T01:25:54.000Z,26.3
2019-03-27T01:27:54.000Z,26.3
2019-03-27T01:29:54.000Z,26.2
2019-03-27T01:30:54.000Z,26.2
2019-03-27T01:32:54.000Z,26.2
2019-03-27T01:34:54.000Z,26.2
2019-03-27T01:36:54.000Z,26.1
2019-03-27T01:38:39.000Z,26.1
2019-03-27T01:39:54.000Z,26
2019-03-27T01:40:54.000Z,26
2019-03-27T01:42:54.000Z,26.1
2019-03-27T01:43:54.000Z,26.1
2019-03-27T01:44:54.000Z,26.2
2019-03-27T01:46:39.000Z,26.2
2019-03-27T01:47:54.000Z,26.1
2019-03-27T01:48:54.000Z,26.1
2019-03-27T01:50:54.000Z,26.2
2019-03-27T01:51:54.000Z,26.2
2019-03-27T01:53:39.000Z,26.3
2019-03-27T01:54:54.000Z,26.2
2019-03-27T01:55:54.000Z,26.3
2019-03-27T01:57:54.000Z,26.3
2019-03-27T01:59:54.000Z,26.3
2019-03-27T02:00:54.000Z,26.3
2019-03-27T02:02:54.000Z,26.3
2019-03-27T02:03:54.000Z,26.3
2019-03-27T02:05:54.000Z,26.3
2019-03-27T02:06:54.000Z,26.3
2019-03-27T02:07:54.000Z,26.3
2019-03-27T02:08:54.000Z,26.3
2019-03-27T02:10:39.000Z,26.4
2019-03-27T02:11:54.000Z,26.3
2019-03-27T02:13:54.000Z,26.3
2019-03-27T02:15:54.000Z,26.3
2019-03-27T02:17:54.000Z,26.1
2019-03-27T02:19:54.000Z,26.1
2019-03-27T02:21:54.000Z,26.1
2019-03-27T02:22:54.000Z,26.1
2019-03-27T02:24:54.000Z,26.1
2019-03-27T02:26:54.000Z,26.1
2019-03-27T02:28:39.000Z,26.1
2019-03-27T02:29:54.000Z,26.1
2019-03-27T02:30:54.000Z,26.1
2019-03-27T02:32:54.000Z,26.2
2019-03-27T02:33:54.000Z,26.2
2019-03-27T02:35:54.000Z,26.2
2019-03-27T02:36:54.000Z,26.2
2019-03-27T02:37:54.000Z,26.3
2019-03-27T02:39:54.000Z,26.3
2019-03-27T02:40:54.000Z,26.3
2019-03-27T02:41:54.000Z,26.3
2019-03-27T02:42:54.000Z,26.3
2019-03-27T02:44:54.000Z,26.3
2019-03-27T02:46:54.000Z,26.3
2019-03-27T02:48:54.000Z,26.2
2019-03-27T02:50:39.000Z,26.1
2019-03-27T02:51:54.000Z,26.1
2019-03-27T02:52:54.000Z,26.1
2019-03-27T02:54:54.000Z,26.2
2019-03-27T02:56:54.000Z,26.2
2019-03-27T02:58:54.000Z,26.2
2019-03-27T02:59:54.000Z,26.2
2019-03-27T03:01:54.000Z,26.2
2019-03-27T03:02:54.000Z,26.2
2019-03-27T03:03:54.000Z,26.3
2019-03-27T03:04:54.000Z,26.3
2019-03-27T03:05:54.000Z,26.3
2019-03-27T03:06:54.000Z,26.4
2019-03-27T03:07:54.000Z,26.4
2019-03-27T03:09:54.000Z,26.5
2019-03-27T03:11:54.000Z,26.4
2019-03-27T03:12:54.000Z,26.4
2019-03-27T03:13:54.000Z,26.4
2019-03-27T03:15:54.000Z,26.4
2019-03-27T03:17:54.000Z,26.3
2019-03-27T03:19:54.000Z,26.2
2019-03-27T03:21:39.000Z,26.2
2019-03-27T03:22:39.000Z,26.1
2019-03-27T03:23:54.000Z,26.1
2019-03-27T03:25:54.000Z,26.1
2019-03-27T03:27:39.000Z,26.1
2019-03-27T03:28:54.000Z,26.1
2019-03-27T03:29:54.000Z,26.1
2019-03-27T03:30:54.000Z,26.2
2019-03-27T03:32:39.000Z,26.2
2019-03-27T03:33:39.000Z,26.2
2019-03-27T03:34:54.000Z,26.2
2019-03-27T03:36:54.000Z,26
2019-03-27T03:37:54.000Z,26
2019-03-27T03:39:54.000Z,26
2019-03-27T03:41:54.000Z,26
2019-03-27T03:43:54.000Z,26
2019-03-27T03:44:54.000Z,26
2019-03-27T03:46:54.000Z,26
2019-03-27T03:48:39.000Z,25.9
2019-03-27T03:49:54.000Z,25.9
2019-03-27T03:51:39.000Z,25.9
2019-03-27T03:52:39.000Z,25.9
2019-03-27T03:53:54.000Z,25.9
2019-03-27T03:54:54.000Z,25.9
2019-03-27T03:55:54.000Z,25.9
2019-03-27T03:57:55.000Z,26
2019-03-27T03:59:55.000Z,26.1
2019-03-27T04:00:55.000Z,26.1
2019-03-27T04:01:55.000Z,26.1
2019-03-27T04:03:55.000Z,26.1
2019-03-27T04:04:55.000Z,26.2
2019-03-27T04:05:55.000Z,26.2
2019-03-27T04:07:55.000Z,26.3
2019-03-27T04:08:55.000Z,26.3
2019-03-27T04:10:55.000Z,26.3
2019-03-27T04:12:55.000Z,26.3
2019-03-27T04:14:55.000Z,26.3
2019-03-27T04:15:55.000Z,26.2
2019-03-27T04:17:55.000Z,26.3
2019-03-27T04:19:55.000Z,26.2
2019-03-27T04:21:55.000Z,26.1
2019-03-27T04:23:55.000Z,26.1
2019-03-27T04:24:55.000Z,26.1
2019-03-27T04:26:55.000Z,26.1
2019-03-27T04:27:55.000Z,26.1
2019-03-27T04:28:55.000Z,26.1
2019-03-27T04:29:55.000Z,26.2
2019-03-27T04:31:55.000Z,26.3
2019-03-27T04:32:55.000Z,26.3
2019-03-27T04:34:55.000Z,26.2
2019-03-27T04:35:55.000Z,26.2
2019-03-27T04:37:55.000Z,26.3
2019-03-27T04:39:55.000Z,26.2
2019-03-27T04:40:55.000Z,26.2
2019-03-27T04:42:55.000Z,26.3
2019-03-27T04:44:55.000Z,26.2
2019-03-27T04:45:55.000Z,26.2
2019-03-27T04:46:55.000Z,26.2
2019-03-27T04:48:55.000Z,26.2
2019-03-27T04:50:55.000Z,26.2
2019-03-27T04:52:40.000Z,26.2
2019-03-27T04:53:55.000Z,26.1
2019-03-27T04:55:55.000Z,26.1
2019-03-27T04:56:55.000Z,26.1
2019-03-27T04:57:55.000Z,26.1
2019-03-27T04:59:55.000Z,26.1
2019-03-27T05:01:55.000Z,26.1
2019-03-27T05:02:55.000Z,26.1
2019-03-27T05:03:55.000Z,26.1
2019-03-27T05:05:55.000Z,26.1
2019-03-27T05:06:55.000Z,26.1
2019-03-27T05:08:40.000Z,26.1
2019-03-27T05:09:55.000Z,26.1
2019-03-27T05:10:55.000Z,26.1
2019-03-27T05:11:55.000Z,26.2
2019-03-27T05:13:40.000Z,26.2
2019-03-27T05:14:55.000Z,26.2
2019-03-27T05:15:55.000Z,26.2
2019-03-27T05:16:55.000Z,26.3
2019-03-27T05:18:55.000Z,26.3
2019-03-27T05:19:55.000Z,26.3
2019-03-27T05:20:55.000Z,26.3
2019-03-27T05:22:55.000Z,26.4
2019-03-27T05:23:55.000Z,26.3
2019-03-27T05:25:55.000Z,26.3
2019-03-27T05:26:55.000Z,26.3
2019-03-27T05:27:55.000Z,26.3
2019-03-27T05:28:55.000Z,26.4
2019-03-27T05:30:55.000Z,26.4
2019-03-27T05:31:55.000Z,26.4
2019-03-27T05:33:55.000Z,26.3
2019-03-27T05:34:55.000Z,26.3
2019-03-27T05:36:55.000Z,26.4
2019-03-27T05:38:55.000Z,26.3
2019-03-27T05:40:55.000Z,26.2
2019-03-27T05:41:55.000Z,26.2
2019-03-27T05:43:55.000Z,26.1
2019-03-27T05:44:55.000Z,26.1
2019-03-27T05:46:55.000Z,26.1
2019-03-27T05:47:55.000Z,26.1
2019-03-27T05:49:55.000Z,26.1
2019-03-27T05:51:55.000Z,26.1
2019-03-27T05:53:55.000Z,26
2019-03-27T05:54:55.000Z,26.1
2019-03-27T05:56:55.000Z,26.1
2019-03-27T05:57:55.000Z,26.1
2019-03-27T05:59:55.000Z,26.1
2019-03-27T06:00:55.000Z,26.2
2019-03-27T06:02:55.000Z,26.2
2019-03-27T06:04:55.000Z,26.2
2019-03-27T06:05:55.000Z,26.2
2019-03-27T06:07:55.000Z,26.3
2019-03-27T06:08:55.000Z,26.3
2019-03-27T06:10:55.000Z,26.3
2019-03-27T06:12:40.000Z,26.3
2019-03-27T06:13:55.000Z,26.3
2019-03-27T06:15:55.000Z,26.2
2019-03-27T06:17:55.000Z,26.2
2019-03-27T06:19:55.000Z,26.1
2019-03-27T06:20:55.000Z,26
2019-03-27T06:22:55.000Z,26.1
2019-03-27T06:24:55.000Z,26.1
2019-03-27T06:25:55.000Z,26.1
2019-03-27T06:26:55.000Z,26.1
2019-03-27T06:28:55.000Z,26.2
2019-03-27T06:30:55.000Z,26.3
2019-03-27T06:31:55.000Z,26.3
2019-03-27T06:33:55.000Z,26.3
2019-03-27T06:35:55.000Z,26.3
2019-03-27T06:37:55.000Z,26.2
2019-03-27T06:38:55.000Z,26.3
2019-03-27T06:40:55.000Z,26.3
2019-03-27T06:41:55.000Z,26.3
2019-03-27T06:43:55.000Z,26.3
2019-03-27T06:45:55.000Z,26.3
2019-03-27T06:47:55.000Z,26.2
2019-03-27T06:48:55.000Z,26.2
2019-03-27T06:50:55.000Z,26.3
2019-03-27T06:52:55.000Z,26.3
2019-03-27T06:54:40.000Z,26.3
2019-03-27T06:55:55.000Z,26.3
2019-03-27T06:57:55.000Z,26.2
2019-03-27T06:59:40.000Z,26.2
2019-03-27T07:00:55.000Z,26.2
2019-03-27T07:01:55.000Z,26.2
2019-03-27T07:02:55.000Z,26.3
2019-03-27T07:04:55.000Z,26.3
2019-03-27T07:05:55.000Z,26.4
2019-03-27T07:07:55.000Z,26.4
2019-03-27T07:08:55.000Z,26.5
2019-03-27T07:10:55.000Z,26.5
2019-03-27T07:11:55.000Z,26.5
2019-03-27T07:13:55.000Z,26.5
2019-03-27T07:14:55.000Z,26.5
2019-03-27T07:16:55.000Z,26.5
2019-03-27T07:17:55.000Z,26.5
2019-03-27T07:18:55.000Z,26.6
2019-03-27T07:20:40.000Z,26.6
2019-03-27T07:22:55.000Z,26.5
2019-03-27T07:24:55.000Z,26.5
2019-03-27T07:26:55.000Z,26.5
2019-03-27T07:27:55.000Z,26.5
2019-03-27T07:29:40.000Z,26.6
2019-03-27T07:30:55.000Z,26.6
2019-03-27T07:32:40.000Z,26.6
2019-03-27T07:33:55.000Z,26.7
2019-03-27T07:35:55.000Z,26.7
2019-03-27T07:37:55.000Z,26.7
2019-03-27T07:39:55.000Z,26.8
2019-03-27T07:41:55.000Z,26.8
2019-03-27T07:42:55.000Z,26.9
2019-03-27T07:44:40.000Z,27
2019-03-27T07:45:55.000Z,27
2019-03-27T07:46:55.000Z,27
2019-03-27T07:48:40.000Z,27.1
2019-03-27T07:49:55.000Z,27
2019-03-27T07:50:55.000Z,27
2019-03-27T07:51:55.000Z,27.1
2019-03-27T07:53:55.000Z,27.2
2019-03-27T07:55:55.000Z,27.2
2019-03-27T07:57:55.000Z,27.3
2019-03-27T07:59:40.000Z,27.3
2019-03-27T08:00:55.000Z,27.3
2019-03-27T08:02:55.000Z,27.4
2019-03-27T08:04:55.000Z,27.4
2019-03-27T08:06:55.000Z,27.4
2019-03-27T08:07:55.000Z,27.4
2019-03-27T08:09:55.000Z,27.5
2019-03-27T08:10:55.000Z,27.5
2019-03-27T08:12:55.000Z,27.5
2019-03-27T08:13:55.000Z,27.5
2019-03-27T08:15:40.000Z,27.6
2019-03-27T08:16:55.000Z,27.5
2019-03-27T08:17:55.000Z,27.5
2019-03-27T08:19:55.000Z,27.5
2019-03-27T08:20:55.000Z,27.6
2019-03-27T08:21:55.000Z,27.6
2019-03-27T08:23:55.000Z,27.8
2019-03-27T08:24:55.000Z,27.9
2019-03-27T08:25:55.000Z,28
2019-03-27T08:26:55.000Z,28.1
2019-03-27T08:28:40.000Z,28.3
2019-03-27T08:29:55.000Z,28.3
2019-03-27T08:30:55.000Z,28.3
2019-03-27T08:31:55.000Z,28.4
2019-03-27T08:32:55.000Z,28.5
2019-03-27T08:34:55.000Z,28.6
2019-03-27T08:36:55.000Z,28.6
2019-03-27T08:38:55.000Z,28.7
2019-03-27T08:40:55.000Z,28.8
2019-03-27T08:42:40.000Z,29
2019-03-27T08:43:55.000Z,29
2019-03-27T08:44:55.000Z,29.1
2019-03-27T08:46:55.000Z,29.4
2019-03-27T08:47:55.000Z,29.4
2019-03-27T08:48:55.000Z,29.4
2019-03-27T08:50:55.000Z,29.3
2019-03-27T08:51:55.000Z,29.1
2019-03-27T08:53:55.000Z,29
2019-03-27T08:55:55.000Z,28.8
2019-03-27T08:57:55.000Z,28.6
2019-03-27T08:59:55.000Z,28.5
2019-03-27T09:00:55.000Z,28.4
2019-03-27T09:02:55.000Z,28.4
2019-03-27T09:03:55.000Z,28.3
2019-03-27T09:05:55.000Z,28.3
2019-03-27T09:07:55.000Z,28.2
2019-03-27T09:08:55.000Z,28.2
2019-03-27T09:10:55.000Z,28.1
2019-03-27T09:11:55.000Z,28.1
2019-03-27T09:13:55.000Z,28.1
2019-03-27T09:15:55.000Z,28
2019-03-27T09:17:55.000Z,28
2019-03-27T09:18:55.000Z,28
2019-03-27T09:20:55.000Z,27.9
2019-03-27T09:22:55.000Z,27.9
2019-03-27T09:24:55.000Z,27.9
2019-03-27T09:26:55.000Z,27.9
2019-03-27T09:27:55.000Z,27.9
2019-03-27T09:29:55.000Z,27.9
2019-03-27T09:30:55.000Z,27.9
2019-03-27T09:32:55.000Z,27.9
2019-03-27T09:33:55.000Z,27.8
2019-03-27T09:35:55.000Z,27.9
2019-03-27T09:37:40.000Z,27.8
2019-03-27T09:38:55.000Z,27.8
2019-03-27T09:40:55.000Z,27.7
2019-03-27T09:41:55.000Z,27.7
2019-03-27T09:42:55.000Z,27.7
2019-03-27T09:44:55.000Z,27.8
2019-03-27T09:45:55.000Z,27.8
2019-03-27T09:47:55.000Z,27.8
2019-03-27T09:49:40.000Z,27.8
2019-03-27T10:33:15.000Z,26.1
2019-03-27T10:34:15.000Z,26.2
2019-03-27T10:36:15.000Z,26.5
2019-03-27T10:37:15.000Z,26.6
2019-03-27T10:39:00.000Z,26.7
2019-03-27T10:41:15.000Z,26.8
2019-03-27T10:43:00.000Z,26.8
2019-03-27T10:44:15.000Z,26.8
2019-03-27T10:46:15.000Z,26.8
2019-03-27T10:48:00.000Z,26.9
2019-03-27T10:49:00.000Z,26.9
2019-03-27T10:51:15.000Z,27
2019-03-27T10:53:15.000Z,27
2019-03-27T10:55:00.000Z,27.1
2019-03-27T10:56:15.000Z,27.2
2019-03-27T10:57:15.000Z,27.2
2019-03-27T10:59:00.000Z,27.2
2019-03-27T11:00:15.000Z,27.1
2019-03-27T11:02:15.000Z,27.1
2019-03-27T11:03:15.000Z,27.1
2019-03-27T11:05:00.000Z,27.3
2019-03-27T11:06:15.000Z,27.3
2019-03-27T11:08:15.000Z,27.2
2019-03-27T11:10:00.000Z,27.2
2019-03-27T11:11:15.000Z,27.2
2019-03-27T11:13:00.000Z,27.2
2019-03-27T11:14:15.000Z,27.2
2019-03-27T11:16:15.000Z,27.2
2019-03-27T11:18:00.000Z,27.2
2019-03-27T11:20:15.000Z,27.1
2019-03-27T11:22:15.000Z,26.9
2019-03-27T11:24:00.000Z,26.6
2019-03-27T11:25:15.000Z,26.4
2019-03-27T11:27:00.000Z,26
2019-03-27T11:29:00.000Z,25.7
2019-03-27T11:31:15.000Z,25.2
2019-03-27T11:32:15.000Z,25.1
2019-03-27T11:33:15.000Z,25
2019-03-27T11:35:15.000Z,25
2019-03-27T11:37:15.000Z,24.8
2019-03-27T11:39:00.000Z,24.6
2019-03-27T11:40:15.000Z,24.5
2019-03-27T11:42:00.000Z,24.3
2019-03-27T11:43:00.000Z,24.2
2019-03-27T11:44:15.000Z,24.1
2019-03-27T11:45:15.000Z,24.1
2019-03-27T11:47:15.000Z,24
2019-03-27T11:49:15.000Z,23.8
2019-03-27T11:51:00.000Z,23.7
2019-03-27T11:52:15.000Z,23.6
2019-03-27T11:54:15.000Z,23.5
2019-03-27T11:56:02.000Z,23.5
2019-03-27T11:58:15.000Z,23.5
2019-03-27T12:00:15.000Z,23.6
2019-03-27T12:02:15.000Z,23.7
2019-03-27T12:03:15.000Z,23.7
2019-03-27T12:05:15.000Z,23.9
2019-03-27T12:07:00.000Z,24
2019-03-27T12:08:15.000Z,24
2019-03-27T12:09:15.000Z,23.9
2019-03-27T12:11:15.000Z,23.9
2019-03-27T12:13:00.000Z,23.9
2019-03-27T12:15:15.000Z,23.9
2019-03-27T12:17:00.000Z,23.9
2019-03-27T12:18:00.000Z,23.9
2019-03-27T12:19:00.000Z,23.9
2019-03-27T12:21:00.000Z,23.8
2019-03-27T12:22:00.000Z,23.7
2019-03-27T12:23:00.000Z,23.7
2019-03-27T12:25:15.000Z,23.6
2019-03-27T12:27:00.000Z,23.7
2019-03-27T12:28:00.000Z,23.7
2019-03-27T12:30:00.000Z,23.8
2019-03-27T12:31:15.000Z,23.8
2019-03-27T12:32:15.000Z,24
2019-03-27T12:34:00.000Z,24.1
2019-03-27T12:35:15.000Z,24.2
2019-03-27T12:36:15.000Z,24.4
2019-03-27T12:38:00.000Z,24.5
2019-03-27T12:40:15.000Z,24.4
2019-03-27T12:41:15.000Z,24.3
2019-03-27T12:43:00.000Z,24.3
2019-03-27T12:44:00.000Z,24.4
2019-03-27T12:45:01.000Z,24.3
2019-03-27T12:46:15.000Z,24.3
2019-03-27T12:48:15.000Z,24.2
2019-03-27T12:50:00.000Z,24.3
2019-03-27T12:51:00.000Z,24.3
2019-03-27T12:52:15.000Z,24.2
2019-03-27T12:54:15.000Z,24.3
2019-03-27T12:56:15.000Z,24.4
2019-03-27T12:58:15.000Z,24.4
2019-03-27T13:00:15.000Z,24.4
2019-03-27T13:02:00.000Z,24.4
2019-03-27T13:03:00.000Z,24.4
2019-03-27T13:05:15.000Z,24.5
2019-03-27T13:06:15.000Z,24.5
2019-03-27T13:08:00.000Z,24.5
2019-03-27T13:09:15.000Z,24.5
2019-03-27T13:11:00.000Z,24.4
2019-03-27T13:12:00.000Z,24.3
2019-03-27T13:13:00.000Z,24.2
2019-03-27T13:15:15.000Z,24
2019-03-27T13:17:15.000Z,24
2019-03-27T13:19:15.000Z,24
2019-03-27T13:21:15.000Z,24.1
2019-03-27T13:23:15.000Z,24.2
2019-03-27T13:25:15.000Z,24.3
2019-03-27T13:27:15.000Z,24.4
2019-03-27T13:29:15.000Z,24.5
2019-03-27T13:30:15.000Z,24.5
2019-03-27T13:32:15.000Z,24.5
2019-03-27T13:34:15.000Z,24.6
2019-03-27T13:35:15.000Z,24.6
2019-03-27T13:36:15.000Z,24.7
2019-03-27T13:38:15.000Z,24.8
2019-03-27T13:39:15.000Z,24.9
2019-03-27T13:41:15.000Z,25.2
2019-03-27T13:43:15.000Z,25.6
2019-03-27T13:44:15.000Z,25.8
2019-03-27T13:46:15.000Z,26.3
2019-03-27T13:48:15.000Z,26.5
2019-03-27T13:50:15.000Z,26.7
2019-03-27T13:52:15.000Z,26.7
2019-03-27T13:53:15.000Z,26.8
2019-03-27T13:55:15.000Z,26.9
2019-03-27T13:57:15.000Z,26.9
2019-03-27T13:59:15.000Z,26.9
2019-03-27T14:01:15.000Z,27
2019-03-27T14:03:15.000Z,27
2019-03-27T14:05:15.000Z,27
2019-03-27T14:07:15.000Z,27
2019-03-27T14:09:15.000Z,27
2019-03-27T14:11:15.000Z,27.1
2019-03-27T14:12:15.000Z,27.1
2019-03-27T14:14:00.000Z,27.2
2019-03-27T14:15:15.000Z,27.1
2019-03-27T14:16:15.000Z,27.1
2019-03-27T14:17:15.000Z,27.2
2019-03-27T14:19:15.000Z,27.3
2019-03-27T14:20:15.000Z,27.3
2019-03-27T14:22:15.000Z,27.4
2019-03-27T14:24:15.000Z,27.5
2019-03-27T14:26:15.000Z,27.5
2019-03-27T14:28:15.000Z,27.5
2019-03-27T14:29:15.000Z,27.5
2019-03-27T14:31:15.000Z,27.6
2019-03-27T14:33:15.000Z,27.6
2019-03-27T14:34:15.000Z,27.7
2019-03-27T14:36:15.000Z,27.7
2019-03-27T14:38:15.000Z,27.8
2019-03-27T14:40:15.000Z,27.9
2019-03-27T14:42:15.000Z,27.9
2019-03-27T14:43:15.000Z,27.9
2019-03-27T14:45:15.000Z,27.9
2019-03-27T14:47:15.000Z,27.9
2019-03-27T14:49:15.000Z,27.9
2019-03-27T14:50:15.000Z,27.9
2019-03-27T14:52:00.000Z,28
2019-03-27T14:53:15.000Z,28
2019-03-27T14:55:00.000Z,27.9
2019-03-27T14:56:15.000Z,27.8
2019-03-27T14:57:15.000Z,27.8
2019-03-27T14:59:15.000Z,28
2019-03-27T15:01:15.000Z,28.1
2019-03-27T15:03:15.000Z,28.2
2019-03-27T15:05:00.000Z,28.3
2019-03-27T15:06:15.000Z,28.3
2019-03-27T15:08:00.000Z,28.3
2019-03-27T15:09:15.000Z,28.3
2019-03-27T15:10:15.000Z,28.3
2019-03-27T15:12:15.000Z,28.3
2019-03-27T15:13:15.000Z,28.3
2019-03-27T15:16:53.000Z,28.7
2019-03-27T15:18:53.000Z,28.9
2019-03-27T15:19:53.000Z,28.9
2019-03-27T15:21:53.000Z,28.9
2019-03-27T15:23:53.000Z,28.8
2019-03-27T15:24:53.000Z,28.8
2019-03-27T15:26:53.000Z,28.8
2019-03-27T15:28:53.000Z,28.8
2019-03-27T15:30:53.000Z,28.8
2019-03-27T15:32:37.000Z,28.7
2019-03-27T15:33:53.000Z,28.7
2019-03-27T15:34:53.000Z,28.7
2019-03-27T15:36:53.000Z,28.7
2019-03-27T15:38:53.000Z,28.7
2019-03-27T15:39:52.000Z,28.7
2019-03-27T15:40:52.000Z,28.8
2019-03-27T15:41:52.000Z,28.8
2019-03-27T15:43:52.000Z,28.8
2019-03-27T15:45:52.000Z,28.8
2019-03-27T15:47:37.000Z,28.7
2019-03-27T15:48:52.000Z,28.6
2019-03-27T15:50:52.000Z,28.6
2019-03-27T15:52:52.000Z,28.5
2019-03-27T15:53:52.000Z,28.4
2019-03-27T15:54:52.000Z,28.5
2019-03-27T15:56:37.000Z,28.6
2019-03-27T15:57:52.000Z,28.5
2019-03-27T15:59:52.000Z,28.4
2019-03-27T16:00:52.000Z,28.4
2019-03-27T16:01:52.000Z,28.4
2019-03-27T16:03:37.000Z,28.4
2019-03-27T16:05:37.000Z,28.4
2019-03-27T16:06:52.000Z,28.3
2019-03-27T16:07:52.000Z,28.3
2019-03-27T16:09:52.000Z,28.3
2019-03-27T16:11:52.000Z,28.4
2019-03-27T16:12:52.000Z,28.4
2019-03-27T16:13:52.000Z,28.5
2019-03-27T16:15:52.000Z,28.5
2019-03-27T16:17:52.000Z,28.5
2019-03-27T16:18:52.000Z,28.5
2019-03-27T16:20:52.000Z,28.5
2019-03-27T16:21:52.000Z,28.5
2019-03-27T16:23:52.000Z,28.5
2019-03-27T16:25:52.000Z,28.3
2019-03-27T16:26:52.000Z,28.3
2019-03-27T16:28:52.000Z,28.2
2019-03-27T16:29:52.000Z,28.2
2019-03-27T16:30:52.000Z,28.3
2019-03-27T16:32:37.000Z,28.3
2019-03-27T16:33:52.000Z,28.3
2019-03-27T16:35:52.000Z,28.4
2019-03-27T16:37:52.000Z,28.3
2019-03-27T16:38:52.000Z,28.3
2019-03-27T16:40:52.000Z,28.3
2019-03-27T16:42:52.000Z,28.3
2019-03-27T16:43:53.000Z,28.3
2019-03-27T16:44:53.000Z,28.4
2019-03-27T16:46:53.000Z,28.5
2019-03-27T16:47:53.000Z,28.5
2019-03-27T16:49:53.000Z,28.5
2019-03-27T16:51:53.000Z,28.4
2019-03-27T16:53:53.000Z,28.3
2019-03-27T16:54:53.000Z,28.2
2019-03-27T16:55:53.000Z,28.2
2019-03-27T16:56:53.000Z,28.3
2019-03-27T16:57:53.000Z,28.3
2019-03-27T16:59:53.000Z,28.4
2019-03-27T17:01:53.000Z,28.4
2019-03-27T17:03:38.000Z,28.4
2019-03-27T17:04:53.000Z,28.3
2019-03-27T17:05:53.000Z,28.3
2019-03-27T17:07:38.000Z,28.2
2019-03-27T17:08:53.000Z,28.2
2019-03-27T17:10:53.000Z,28.2
2019-03-27T17:11:53.000Z,28.2
2019-03-27T17:13:53.000Z,28.2
2019-03-27T17:15:53.000Z,28.1
2019-03-27T17:17:53.000Z,28.1
2019-03-27T17:18:53.000Z,28.1
2019-03-27T17:20:53.000Z,28.1
2019-03-27T17:21:53.000Z,28.1
2019-03-27T17:22:53.000Z,28.1
2019-03-27T17:24:53.000Z,28.1
2019-03-27T17:26:53.000Z,27.9
2019-03-27T17:27:53.000Z,27.9
2019-03-27T17:29:53.000Z,27.8
2019-03-27T17:31:38.000Z,27.9
2019-03-27T17:32:53.000Z,27.8
2019-03-27T17:34:38.000Z,27.8
2019-03-27T17:35:53.000Z,27.8
2019-03-27T17:37:53.000Z,27.8
2019-03-27T17:39:53.000Z,27.7
2019-03-27T17:40:53.000Z,27.6
2019-03-27T17:41:53.000Z,27.7
2019-03-27T17:43:53.000Z,27.7
2019-03-27T17:45:53.000Z,27.8
2019-03-27T17:47:52.000Z,27.8
2019-03-27T17:49:37.000Z,27.8
2019-03-27T17:50:52.000Z,27.7
2019-03-27T17:52:37.000Z,27.7
2019-03-27T17:54:52.000Z,27.6
2019-03-27T17:56:52.000Z,27.5
2019-03-27T17:58:37.000Z,27.5
2019-03-27T17:59:52.000Z,27.5
2019-03-27T18:00:52.000Z,27.5
2019-03-27T18:02:52.000Z,27.6
2019-03-27T18:04:52.000Z,27.6
2019-03-27T18:06:52.000Z,27.6
2019-03-27T18:08:52.000Z,27.5
2019-03-27T18:09:52.000Z,27.5
2019-03-27T18:10:52.000Z,27.6
2019-03-27T18:12:52.000Z,27.6
2019-03-27T18:14:52.000Z,27.6
2019-03-27T18:15:52.000Z,27.7
2019-03-27T18:17:52.000Z,27.7
2019-03-27T18:18:52.000Z,27.7
2019-03-27T18:20:52.000Z,27.7
2019-03-27T18:21:52.000Z,27.8
2019-03-27T18:23:37.000Z,27.7
2019-03-27T18:24:52.000Z,27.6
2019-03-27T18:26:52.000Z,27.5
2019-03-27T18:28:52.000Z,27.5
2019-03-27T18:29:52.000Z,27.5
2019-03-27T18:31:52.000Z,27.5
2019-03-27T18:33:52.000Z,27.5
2019-03-27T18:35:52.000Z,27.5
2019-03-27T18:36:52.000Z,27.5
2019-03-27T18:37:52.000Z,27.5
2019-03-27T18:39:52.000Z,27.6
2019-03-27T18:41:52.000Z,27.6
2019-03-27T18:43:37.000Z,27.6
2019-03-27T18:44:52.000Z,27.5
2019-03-27T18:46:52.000Z,27.5
2019-03-27T18:47:52.000Z,27.5
2019-03-27T18:48:52.000Z,27.6
2019-03-27T18:50:52.000Z,27.6
2019-03-27T18:51:52.000Z,27.6
2019-03-27T18:53:52.000Z,27.6
2019-03-27T18:55:52.000Z,27.5
2019-03-27T18:57:52.000Z,27.4
2019-03-27T18:58:52.000Z,27.3
2019-03-27T19:00:52.000Z,27.3
2019-03-27T19:02:52.000Z,27.2
2019-03-27T19:04:52.000Z,27.2
2019-03-27T19:06:52.000Z,27.2
2019-03-27T19:07:52.000Z,27.3
2019-03-27T19:08:52.000Z,27.3
2019-03-27T19:10:52.000Z,27.4
2019-03-27T19:12:52.000Z,27.4
2019-03-27T19:13:52.000Z,27.4
2019-03-27T19:15:52.000Z,27.5
2019-03-27T19:16:52.000Z,27.5
2019-03-27T19:18:52.000Z,27.5
2019-03-27T19:19:52.000Z,27.5
2019-03-27T19:20:52.000Z,27.6
2019-03-27T19:22:37.000Z,27.6
2019-03-27T19:23:52.000Z,27.5
2019-03-27T19:25:52.000Z,27.4
2019-03-27T19:26:52.000Z,27.3
2019-03-27T19:28:52.000Z,27.3
2019-03-27T19:30:52.000Z,27.2
2019-03-27T19:32:52.000Z,27.2
2019-03-27T19:34:52.000Z,27.1
2019-03-27T19:36:52.000Z,27.1
2019-03-27T19:38:52.000Z,27.1
2019-03-27T19:40:52.000Z,27
2019-03-27T19:41:52.000Z,27
2019-03-27T19:43:52.000Z,27.1
2019-03-27T19:44:52.000Z,27.1
2019-03-27T19:46:52.000Z,27.1
2019-03-27T19:48:37.000Z,27.1
2019-03-27T19:49:52.000Z,27.1
2019-03-27T19:51:52.000Z,27.2
2019-03-27T19:53:37.000Z,27.2
2019-03-27T19:54:52.000Z,27.2
2019-03-27T19:55:52.000Z,27.2
2019-03-27T19:56:52.000Z,27.3
2019-03-27T19:58:52.000Z,27.4
2019-03-27T19:59:52.000Z,27.4
2019-03-27T20:01:52.000Z,27.4
2019-03-27T20:03:52.000Z,27.4
2019-03-27T20:04:52.000Z,27.4
2019-03-27T20:06:52.000Z,27.4
2019-03-27T20:08:52.000Z,27.4
2019-03-27T20:10:37.000Z,27.2
2019-03-27T20:11:37.000Z,27.2
2019-03-27T20:12:52.000Z,27.1
2019-03-27T20:13:52.000Z,27.1
2019-03-27T20:14:52.000Z,27.1
2019-03-27T20:16:37.000Z,27.1
2019-03-27T20:17:52.000Z,27.1
2019-03-27T20:18:52.000Z,27.1
2019-03-27T20:20:52.000Z,27.2
2019-03-27T20:22:52.000Z,27.2
2019-03-27T20:24:37.000Z,27.1
2019-03-27T20:25:52.000Z,27
2019-03-27T20:26:52.000Z,27
2019-03-27T20:28:52.000Z,27.1
2019-03-27T20:30:52.000Z,27.1
2019-03-27T20:32:52.000Z,27.1
2019-03-27T20:33:52.000Z,27.1
2019-03-27T20:35:52.000Z,27.2
2019-03-27T20:36:52.000Z,27.2
2019-03-27T20:37:52.000Z,27.3
2019-03-27T20:39:52.000Z,27.4
2019-03-27T20:41:52.000Z,27.4
2019-03-27T20:43:52.000Z,27.4
2019-03-27T20:45:52.000Z,27.3
2019-03-27T20:46:52.000Z,27.2
2019-03-27T20:48:52.000Z,27.2
2019-03-27T20:50:52.000Z,27.2
2019-03-27T20:51:52.000Z,27.2
2019-03-27T20:53:52.000Z,27.2
2019-03-27T20:55:52.000Z,27.2
2019-03-27T20:57:37.000Z,27.2
2019-03-27T20:58:52.000Z,27.2
2019-03-27T21:00:53.000Z,27.2
2019-03-27T21:01:53.000Z,27.2
2019-03-27T21:03:53.000Z,27.3
2019-03-27T21:04:53.000Z,27.3
2019-03-27T21:05:53.000Z,27.3
2019-03-27T21:07:53.000Z,27.4
2019-03-27T21:08:53.000Z,27.4
2019-03-27T21:10:53.000Z,27.4
2019-03-27T21:11:53.000Z,27.4
2019-03-27T21:13:38.000Z,27.3
2019-03-27T21:14:53.000Z,27.2
2019-03-27T21:16:53.000Z,27
2019-03-27T21:18:53.000Z,27
2019-03-27T21:20:53.000Z,26.9
2019-03-27T21:22:53.000Z,26.9
2019-03-27T21:23:53.000Z,26.9
2019-03-27T21:24:53.000Z,26.9
2019-03-27T21:26:53.000Z,27
2019-03-27T21:27:53.000Z,27
2019-03-27T21:29:53.000Z,27
2019-03-27T21:30:53.000Z,27
2019-03-27T21:32:38.000Z,27.1
2019-03-27T21:33:53.000Z,27.1
2019-03-27T21:34:53.000Z,27.2
2019-03-27T21:35:53.000Z,27.2
2019-03-27T21:37:53.000Z,27.2
2019-03-27T21:38:53.000Z,27.2
2019-03-27T21:39:53.000Z,27.3
2019-03-27T21:41:53.000Z,27.3